createdAt,value
2019-04-01T00:01:56.874Z,22.12
2019-04-01T00:04:25.293Z,22.11
2019-04-01T00:06:53.717Z,22.09
2019-04-01T00:09:22.151Z,22.09
2019-04-01T00:11:50.570Z,22.08
2019-04-01T00:14:19.006Z,22.08
2019-04-01T00:16:47.410Z,22.07
2019-04-01T00:19:15.844Z,22.07
2019-04-01T00:22:28.471Z,22.08
2019-04-01T00:24:14.520Z,22.09
2019-04-01T00:26:42.937Z,22.07
2019-04-01T00:29:11.388Z,22.07
2019-04-01T00:31:39.817Z,22.06
2019-04-01T00:34:08.242Z,22.04
2019-04-01T00:36:36.685Z,22.04
2019-04-01T00:39:06.382Z,22.03
2019-04-01T00:41:36.434Z,22.03
2019-04-01T00:44:12.642Z,22.03
2019-04-01T00:46:41.483Z,22.02
2019-04-01T00:49:09.924Z,22.02
2019-04-01T00:51:38.351Z,22.00
2019-04-01T00:54:06.773Z,21.98
2019-04-01T00:56:35.205Z,21.99
2019-04-01T00:59:03.611Z,21.98
2019-04-01T01:01:32.038Z,21.99
2019-04-01T01:04:00.494Z,21.98
2019-04-01T01:06:28.876Z,21.99
2019-04-01T01:08:57.307Z,21.98
2019-04-01T01:11:25.777Z,21.97
2019-04-01T01:13:54.224Z,21.97
2019-04-01T01:16:22.693Z,21.97
2019-04-01T01:18:51.118Z,21.97
2019-04-01T01:21:19.628Z,21.96
2019-04-01T01:23:48.056Z,21.97
2019-04-01T01:26:16.496Z,21.95
2019-04-01T01:28:44.976Z,21.93
2019-04-01T01:31:13.382Z,21.92
2019-04-01T01:33:41.823Z,21.93
2019-04-01T01:36:10.233Z,21.92
2019-04-01T01:38:38.671Z,21.93
2019-04-01T01:41:07.087Z,21.93
2019-04-01T01:43:35.522Z,21.92
2019-04-01T01:46:03.939Z,21.94
2019-04-01T01:48:32.382Z,21.93
2019-04-01T01:51:00.819Z,21.93
2019-04-01T01:53:29.230Z,21.92
2019-04-01T01:55:57.655Z,21.92
2019-04-01T01:58:26.087Z,21.91
2019-04-01T02:00:56.123Z,21.93
2019-04-01T02:03:24.569Z,21.91
2019-04-01T02:05:52.999Z,21.90
2019-04-01T02:08:21.416Z,21.91
2019-04-01T02:10:49.995Z,21.88
2019-04-01T02:13:20.165Z,21.88
2019-04-01T02:15:48.739Z,21.87
2019-04-01T02:18:17.151Z,21.87
2019-04-01T02:20:45.570Z,21.87
2019-04-01T02:23:13.995Z,21.85
2019-04-01T02:25:42.410Z,21.86
2019-04-01T02:28:10.838Z,21.85
2019-04-01T02:30:39.268Z,21.84
2019-04-01T02:33:07.699Z,21.84
2019-04-01T02:35:36.111Z,21.84
2019-04-01T02:38:04.537Z,21.84
2019-04-01T02:40:33.520Z,21.84
2019-04-01T02:43:01.943Z,21.83
2019-04-01T02:45:30.368Z,21.82
2019-04-01T02:47:58.810Z,21.83
2019-04-01T02:50:27.288Z,21.83
2019-04-01T02:52:55.705Z,21.84
2019-04-01T02:55:24.163Z,21.83
2019-04-01T02:57:52.585Z,21.83
2019-04-01T03:00:21.079Z,21.82
2019-04-01T03:02:49.491Z,21.82
2019-04-01T03:05:17.910Z,21.82
2019-04-01T03:07:46.327Z,21.82
2019-04-01T03:10:14.850Z,21.81
2019-04-01T03:12:43.253Z,21.80
2019-04-01T03:15:11.807Z,21.80
2019-04-01T03:17:40.237Z,21.80
2019-04-01T03:20:09.050Z,21.79
2019-04-01T03:22:37.526Z,21.80
2019-04-01T03:25:07.041Z,21.80
2019-04-01T03:27:35.449Z,21.78
2019-04-01T03:30:04.353Z,21.79
2019-04-01T03:32:32.759Z,21.77
2019-04-01T03:35:01.818Z,21.77
2019-04-01T03:37:30.692Z,21.77
2019-04-01T03:39:59.133Z,21.76
2019-04-01T03:42:27.540Z,21.77
2019-04-01T03:44:56.059Z,21.75
2019-04-01T03:47:24.487Z,21.75
2019-04-01T03:49:52.886Z,21.76
2019-04-01T03:52:21.322Z,21.74
2019-04-01T03:54:49.735Z,21.75
2019-04-01T03:57:18.166Z,21.74
2019-04-01T03:59:46.582Z,21.74
2019-04-01T04:02:15.007Z,21.73
2019-04-01T04:04:43.462Z,21.74
2019-04-01T04:07:11.870Z,21.74
2019-04-01T04:09:40.290Z,21.73
2019-04-01T04:12:11.061Z,21.72
2019-04-01T04:14:39.484Z,21.72
2019-04-01T04:17:07.935Z,21.70
2019-04-01T04:19:36.361Z,21.71
2019-04-01T04:22:04.795Z,21.70
2019-04-01T04:24:33.254Z,21.69
2019-04-01T04:27:01.699Z,21.69
2019-04-01T04:29:30.109Z,21.68
2019-04-01T04:31:58.546Z,21.69
2019-04-01T04:34:27.001Z,21.67
2019-04-01T04:36:55.412Z,21.67
2019-04-01T04:39:23.853Z,21.66
2019-04-01T04:41:52.275Z,21.65
2019-04-01T04:44:20.709Z,21.66
2019-04-01T04:46:49.131Z,21.63
2019-04-01T04:49:17.558Z,21.64
2019-04-01T04:51:46.142Z,21.64
2019-04-01T04:54:14.654Z,21.63
2019-04-01T04:56:43.058Z,21.62
2019-04-01T04:59:11.462Z,21.62
2019-04-01T05:01:39.906Z,21.60
2019-04-01T05:04:08.316Z,21.59
2019-04-01T05:06:36.735Z,21.59
2019-04-01T05:09:08.072Z,21.57
2019-04-01T05:11:36.522Z,21.57
2019-04-01T05:14:05.022Z,21.57
2019-04-01T05:16:33.426Z,21.57
2019-04-01T05:19:01.864Z,21.58
2019-04-01T05:21:32.363Z,21.57
2019-04-01T05:24:01.586Z,21.58
2019-04-01T05:26:31.562Z,21.59
2019-04-01T05:29:02.407Z,21.60
2019-04-01T05:31:33.500Z,21.60
2019-04-01T05:34:02.268Z,21.60
2019-04-01T05:36:31.584Z,21.59
2019-04-01T05:39:00.295Z,21.59
2019-04-01T05:41:28.714Z,21.60
2019-04-01T05:43:57.252Z,21.61
2019-04-01T05:46:25.944Z,21.61
2019-04-01T05:48:54.357Z,21.63
2019-04-01T05:51:22.798Z,21.64
2019-04-01T05:53:51.306Z,21.64
2019-04-01T05:56:19.720Z,21.66
2019-04-01T05:58:48.306Z,21.68
2019-04-01T06:01:18.527Z,21.69
2019-04-01T06:03:47.121Z,21.71
2019-04-01T06:06:15.545Z,21.72
2019-04-01T06:08:43.989Z,21.75
2019-04-01T06:11:12.586Z,21.77
2019-04-01T06:13:41.090Z,21.80
2019-04-01T06:16:09.498Z,21.81
2019-04-01T06:18:37.990Z,21.85
2019-04-01T06:21:06.859Z,21.89
2019-04-01T06:23:35.729Z,21.92
2019-04-01T06:26:04.514Z,21.97
2019-04-01T06:28:32.907Z,22.02
2019-04-01T06:31:01.493Z,22.05
2019-04-01T06:33:30.275Z,22.10
2019-04-01T06:35:58.711Z,22.15
2019-04-01T06:38:27.461Z,22.19
2019-04-01T06:40:56.327Z,22.26
2019-04-01T06:43:24.956Z,22.32
2019-04-01T06:45:53.441Z,22.38
2019-04-01T06:48:22.043Z,22.43
2019-04-01T06:53:17.839Z,22.53
2019-04-01T06:55:46.346Z,22.58
2019-04-01T06:58:14.845Z,22.64
2019-04-01T07:00:43.509Z,22.70
2019-04-01T07:03:12.504Z,22.77
2019-04-01T07:05:40.919Z,22.83
2019-04-01T07:08:09.347Z,22.90
2019-04-01T07:10:37.955Z,22.96
2019-04-01T07:13:06.418Z,23.02
2019-04-01T07:15:34.849Z,23.09
2019-04-01T07:18:03.388Z,23.17
2019-04-01T07:20:32.309Z,23.25
2019-04-01T07:23:00.713Z,23.31
2019-04-01T07:25:29.225Z,23.38
2019-04-01T07:27:57.720Z,23.43
2019-04-01T07:30:26.196Z,23.51
2019-04-01T07:32:54.708Z,23.58
2019-04-01T07:35:23.171Z,23.63
2019-04-01T07:37:51.928Z,23.69
2019-04-01T07:40:20.365Z,23.73
2019-04-01T07:42:48.945Z,23.79
2019-04-01T07:45:17.532Z,23.85
2019-04-01T07:47:46.087Z,23.90
2019-04-01T07:50:15.627Z,23.96
2019-04-01T07:52:44.221Z,24.02
2019-04-01T07:55:12.821Z,24.05
2019-04-01T07:57:41.253Z,24.10
2019-04-01T08:00:10.212Z,24.16
2019-04-01T08:02:38.664Z,24.23
2019-04-01T08:05:07.524Z,24.27
2019-04-01T08:07:35.967Z,24.32
2019-04-01T08:10:06.753Z,24.37
2019-04-01T08:12:35.267Z,24.41
2019-04-01T08:15:06.041Z,24.46
2019-04-01T08:17:34.661Z,24.53
2019-04-01T08:20:03.150Z,24.55
2019-04-01T08:22:31.643Z,24.59
2019-04-01T08:25:00.050Z,24.62
2019-04-01T08:27:28.563Z,24.66
2019-04-01T08:29:57.126Z,24.71
2019-04-01T08:32:25.561Z,24.78
2019-04-01T08:34:53.993Z,24.80
2019-04-01T08:37:22.494Z,24.85
2019-04-01T08:39:50.913Z,24.85
2019-04-01T08:42:19.830Z,24.90
2019-04-01T08:44:48.321Z,24.95
2019-04-01T08:47:17.227Z,24.98
2019-04-01T08:49:45.633Z,25.03
2019-04-01T08:52:14.141Z,25.09
2019-04-01T08:54:42.645Z,25.14
2019-04-01T08:57:11.133Z,25.20
2019-04-01T08:59:39.557Z,25.24
2019-04-01T09:02:17.711Z,25.30
2019-04-01T09:04:38.689Z,25.34
2019-04-01T09:07:07.173Z,25.38
2019-04-01T09:09:37.147Z,25.47
2019-04-01T09:12:05.629Z,25.47
2019-04-01T09:14:34.811Z,25.51
2019-04-01T09:17:03.567Z,25.55
2019-04-01T09:19:32.010Z,25.56
2019-04-01T09:22:00.421Z,25.61
2019-04-01T09:24:28.868Z,25.66
2019-04-01T09:26:57.277Z,25.71
2019-04-01T09:29:25.717Z,25.72
2019-04-01T09:31:54.145Z,25.78
2019-04-01T09:34:22.573Z,25.82
2019-04-01T09:36:51.015Z,25.86
2019-04-01T09:39:19.436Z,25.90
2019-04-01T09:41:47.884Z,25.95
2019-04-01T09:44:16.309Z,25.99
2019-04-01T09:46:44.733Z,26.09
2019-04-01T09:49:13.165Z,26.15
2019-04-01T09:51:48.489Z,26.21
2019-04-01T09:54:11.865Z,26.23
2019-04-01T09:56:40.307Z,26.30
2019-04-01T09:59:08.805Z,26.37
2019-04-01T10:01:37.221Z,26.40
2019-04-01T10:04:05.693Z,26.44
2019-04-01T10:06:34.130Z,26.43
2019-04-01T10:09:02.559Z,26.50
2019-04-01T10:11:30.990Z,26.53
2019-04-01T10:13:59.396Z,26.61
2019-04-01T10:16:28.017Z,26.58
2019-04-01T10:18:56.448Z,26.57
2019-04-01T10:21:24.874Z,26.61
2019-04-01T10:23:53.320Z,26.62
2019-04-01T10:26:21.793Z,26.71
2019-04-01T10:28:50.247Z,26.78
2019-04-01T10:31:18.676Z,26.81
2019-04-01T10:33:47.112Z,26.92
2019-04-01T10:36:15.586Z,26.89
2019-04-01T10:38:46.699Z,26.96
2019-04-01T10:41:14.259Z,27.05
2019-04-01T10:43:42.709Z,27.06
2019-04-01T10:46:12.344Z,27.07
2019-04-01T10:48:40.989Z,27.14
2019-04-01T10:51:09.406Z,27.17
2019-04-01T10:53:37.832Z,27.27
2019-04-01T10:56:06.337Z,27.29
2019-04-01T10:58:34.902Z,27.26
2019-04-01T11:01:03.350Z,27.30
2019-04-01T11:03:31.934Z,27.37
2019-04-01T11:06:00.464Z,27.43
2019-04-01T11:08:29.000Z,27.55
2019-04-01T11:10:57.345Z,27.61
2019-04-01T11:13:25.825Z,27.63
2019-04-01T11:15:54.276Z,27.64
2019-04-01T11:18:22.688Z,27.77
2019-04-01T11:20:51.210Z,27.69
2019-04-01T11:23:19.626Z,27.70
2019-04-01T11:25:48.047Z,27.81
2019-04-01T11:28:16.561Z,27.85
2019-04-01T11:30:45.024Z,27.80
2019-04-01T11:33:13.458Z,27.90
2019-04-01T11:35:42.028Z,27.99
2019-04-01T11:38:10.553Z,28.05
2019-04-01T11:40:39.206Z,28.14
2019-04-01T11:43:07.796Z,28.10
2019-04-01T11:45:36.211Z,28.18
2019-04-01T11:48:04.796Z,28.31
2019-04-01T11:50:33.333Z,28.13
2019-04-01T11:53:01.712Z,28.38
2019-04-01T11:55:30.125Z,28.37
2019-04-01T11:57:58.554Z,28.34
2019-04-01T12:00:27.656Z,28.40
2019-04-01T12:02:56.064Z,28.40
2019-04-01T12:05:24.484Z,28.49
2019-04-01T12:07:53.005Z,28.50
2019-04-01T12:10:21.436Z,28.51
2019-04-01T12:12:49.870Z,28.38
2019-04-01T12:15:18.386Z,28.35
2019-04-01T12:17:46.798Z,28.40
2019-04-01T12:20:15.298Z,28.32
2019-04-01T12:22:46.026Z,28.33
2019-04-01T12:25:13.944Z,28.30
2019-04-01T12:27:42.372Z,28.24
2019-04-01T12:30:11.555Z,28.21
2019-04-01T12:32:40.002Z,27.87
2019-04-01T12:35:08.684Z,27.86
2019-04-01T12:37:37.105Z,28.07
2019-04-01T12:40:07.184Z,27.95
2019-04-01T12:42:35.612Z,27.94
2019-04-01T12:45:06.530Z,27.81
2019-04-01T12:47:35.420Z,27.73
2019-04-01T12:50:04.981Z,27.71
2019-04-01T12:52:33.432Z,27.63
2019-04-01T12:55:01.974Z,27.56
2019-04-01T12:57:30.314Z,27.48
2019-04-01T12:59:58.787Z,27.32
2019-04-01T13:02:27.223Z,27.33
2019-04-01T13:04:55.751Z,27.16
2019-04-01T13:07:24.197Z,27.04
2019-04-01T13:09:52.627Z,27.07
2019-04-01T13:12:21.056Z,26.95
2019-04-01T13:14:49.489Z,26.76
2019-04-01T13:17:17.894Z,26.74
2019-04-01T13:19:46.341Z,26.66
2019-04-01T13:22:14.828Z,26.54
2019-04-01T13:24:43.263Z,26.43
2019-04-01T13:27:11.681Z,26.26
2019-04-01T13:29:40.117Z,26.19
2019-04-01T13:32:08.556Z,26.05
2019-04-01T13:34:36.979Z,25.92
2019-04-01T13:37:05.900Z,25.83
2019-04-01T13:39:34.303Z,25.73
2019-04-01T13:42:02.741Z,25.71
2019-04-01T13:44:37.305Z,25.62
2019-04-01T13:47:01.344Z,25.48
2019-04-01T13:49:29.763Z,25.44
2019-04-01T13:51:59.057Z,25.34
2019-04-01T13:54:28.100Z,25.24
2019-04-01T13:56:56.521Z,25.24
2019-04-01T13:59:24.947Z,25.23
2019-04-01T14:01:54.363Z,25.25
2019-04-01T14:04:23.579Z,25.22
2019-04-01T14:06:52.239Z,25.19
2019-04-01T14:09:21.198Z,25.14
2019-04-01T14:11:49.669Z,25.14
2019-04-01T14:14:18.123Z,25.14
2019-04-01T14:16:46.532Z,25.05
2019-04-01T14:19:14.984Z,25.01
2019-04-01T14:21:43.385Z,24.96
2019-04-01T14:24:11.809Z,24.95
2019-04-01T14:26:41.027Z,24.96
2019-04-01T14:29:09.661Z,24.96
2019-04-01T14:31:38.063Z,24.90
2019-04-01T14:34:07.031Z,24.86
2019-04-01T14:36:37.960Z,24.88
2019-04-01T14:39:07.452Z,24.88
2019-04-01T14:41:35.947Z,24.84
2019-04-01T14:44:04.476Z,24.84
2019-04-01T14:46:32.920Z,24.83
2019-04-01T14:49:02.790Z,24.83
2019-04-01T14:51:31.628Z,24.81
2019-04-01T14:54:00.037Z,24.79
2019-04-01T14:56:28.684Z,24.79
2019-04-01T14:58:57.207Z,24.76
2019-04-01T15:01:25.645Z,24.71
2019-04-01T15:03:54.083Z,24.67
2019-04-01T15:06:22.491Z,24.63
2019-04-01T15:08:50.921Z,24.60
2019-04-01T15:11:19.329Z,24.57
2019-04-01T15:13:47.783Z,24.51
2019-04-01T15:16:16.335Z,24.53
2019-04-01T15:18:45.510Z,24.51
2019-04-01T15:21:14.325Z,24.51
2019-04-01T15:23:42.727Z,24.43
2019-04-01T15:26:11.171Z,24.39
2019-04-01T15:28:39.583Z,24.40
2019-04-01T15:31:08.019Z,24.40
2019-04-01T15:33:36.457Z,24.38
2019-04-01T15:36:04.883Z,24.36
2019-04-01T15:38:33.313Z,24.39
2019-04-01T15:41:01.743Z,24.37
2019-04-01T15:43:30.197Z,24.33
2019-04-01T15:45:58.615Z,24.29
2019-04-01T15:48:27.065Z,24.25
2019-04-01T15:50:55.529Z,24.25
2019-04-01T15:53:23.947Z,24.21
2019-04-01T15:55:52.397Z,24.21
2019-04-01T15:58:20.817Z,24.20
2019-04-01T16:00:49.325Z,24.18
2019-04-01T16:03:18.024Z,24.17
2019-04-01T16:05:46.533Z,24.13
2019-04-01T16:08:14.948Z,24.09
2019-04-01T16:10:43.430Z,24.11
2019-04-01T16:13:11.851Z,24.06
2019-04-01T16:15:40.455Z,24.05
2019-04-01T16:18:08.885Z,24.01
2019-04-01T16:20:37.310Z,24.02
2019-04-01T16:23:05.750Z,24.07
2019-04-01T16:25:37.415Z,24.05
2019-04-01T16:28:04.786Z,24.02
2019-04-01T16:30:33.203Z,24.00
2019-04-01T16:33:01.634Z,23.99
2019-04-01T16:35:30.088Z,23.95
2019-04-01T16:37:59.478Z,23.95
2019-04-01T16:40:28.080Z,23.92
2019-04-01T16:42:56.495Z,23.90
2019-04-01T16:45:25.006Z,23.86
2019-04-01T16:47:53.417Z,23.82
2019-04-01T16:50:21.915Z,23.82
2019-04-01T16:52:50.323Z,23.81
2019-04-01T16:55:18.893Z,23.83
2019-04-01T16:57:47.417Z,23.81
2019-04-01T17:00:16.891Z,23.81
2019-04-01T17:02:45.411Z,23.81
2019-04-01T17:05:18.030Z,23.81
2019-04-01T17:07:46.496Z,23.80
2019-04-01T17:10:22.278Z,23.78
2019-04-01T17:12:50.761Z,23.77
2019-04-01T17:15:21.185Z,23.77
2019-04-01T17:17:49.488Z,23.76
2019-04-01T17:20:18.003Z,23.74
2019-04-01T17:22:46.468Z,23.73
2019-04-01T17:25:15.060Z,23.73
2019-04-01T17:27:43.557Z,23.72
2019-04-01T17:30:13.048Z,23.72
2019-04-01T17:32:41.458Z,23.70
2019-04-01T17:35:10.427Z,23.70
2019-04-01T17:37:38.872Z,23.67
2019-04-01T17:40:09.526Z,23.67
2019-04-01T17:42:39.431Z,23.66
2019-04-01T17:45:11.380Z,23.64
2019-04-01T17:47:40.105Z,23.61
2019-04-01T17:50:08.875Z,23.61
2019-04-01T17:52:37.304Z,23.59
2019-04-01T17:55:05.829Z,23.58
2019-04-01T17:57:34.235Z,23.56
2019-04-01T18:00:02.842Z,23.57
2019-04-01T18:02:31.248Z,23.55
2019-04-01T18:04:59.696Z,23.54
2019-04-01T18:07:28.175Z,23.54
2019-04-01T18:09:56.601Z,23.51
2019-04-01T18:12:25.137Z,23.50
2019-04-01T18:14:53.571Z,23.47
2019-04-01T18:17:22.025Z,23.45
2019-04-01T18:19:50.438Z,23.43
2019-04-01T18:22:18.874Z,23.41
2019-04-01T18:24:47.303Z,23.39
2019-04-01T18:27:15.712Z,23.38
2019-04-01T18:29:44.150Z,23.36
2019-04-01T18:32:12.629Z,23.34
2019-04-01T18:34:41.055Z,23.33
2019-04-01T18:37:09.485Z,23.31
2019-04-01T18:39:48.065Z,23.28
2019-04-01T18:42:08.143Z,23.27
2019-04-01T18:44:36.699Z,23.25
2019-04-01T18:47:05.283Z,23.23
2019-04-01T18:49:33.680Z,23.22
2019-04-01T18:52:02.129Z,23.21
2019-04-01T18:54:30.579Z,23.19
2019-04-01T18:56:59.007Z,23.17
2019-04-01T18:59:27.416Z,23.16
2019-04-01T19:01:55.851Z,23.13
2019-04-01T19:04:24.299Z,23.13
2019-04-01T19:06:52.733Z,23.11
2019-04-01T19:09:21.157Z,23.09
2019-04-01T19:12:03.023Z,23.07
2019-04-01T19:14:19.747Z,23.08
2019-04-01T19:16:48.173Z,23.05
2019-04-01T19:19:16.583Z,23.04
2019-04-01T19:21:45.022Z,23.04
2019-04-01T19:24:13.426Z,23.03
2019-04-01T19:26:41.858Z,23.01
2019-04-01T19:29:10.303Z,23.01
2019-04-01T19:31:38.710Z,23.00
2019-04-01T19:34:07.640Z,22.98
2019-04-01T19:36:36.272Z,22.98
2019-04-01T19:39:06.845Z,22.97
2019-04-01T19:41:35.331Z,22.96
2019-04-01T19:44:03.939Z,22.95
2019-04-01T19:46:32.385Z,22.94
2019-04-01T19:49:04.760Z,22.93
2019-04-01T19:51:31.006Z,22.92
2019-04-01T19:53:59.473Z,22.91
2019-04-01T19:56:27.900Z,22.90
2019-04-01T19:58:56.336Z,22.89
2019-04-01T20:01:24.980Z,22.88
2019-04-01T20:03:54.210Z,22.88
2019-04-01T20:06:22.914Z,22.87
2019-04-01T20:08:51.348Z,22.86
2019-04-01T20:11:19.787Z,22.86
2019-04-01T20:13:48.206Z,22.84
2019-04-01T20:16:16.667Z,22.84
2019-04-01T20:18:45.110Z,22.84
2019-04-01T20:21:13.586Z,22.82
2019-04-01T20:23:41.980Z,22.81
2019-04-01T20:26:10.422Z,22.82
2019-04-01T20:28:38.857Z,22.80
2019-04-01T20:31:07.294Z,22.79
2019-04-01T20:33:35.710Z,22.79
2019-04-01T20:36:04.533Z,22.78
2019-04-01T20:38:33.188Z,22.78
2019-04-01T20:41:01.606Z,22.77
2019-04-01T20:43:30.034Z,22.77
2019-04-01T20:45:58.469Z,22.76
2019-04-01T20:48:26.876Z,22.74
2019-04-01T20:50:57.148Z,22.73
2019-04-01T20:53:25.466Z,22.74
2019-04-01T20:55:53.895Z,22.74
2019-04-01T20:58:22.320Z,22.72
2019-04-01T21:00:50.790Z,22.72
2019-04-01T21:03:19.195Z,22.71
2019-04-01T21:05:47.634Z,22.71
2019-04-01T21:08:16.953Z,22.70
2019-04-01T21:10:45.409Z,22.69
2019-04-01T21:13:13.814Z,22.67
2019-04-01T21:15:42.250Z,22.66
2019-04-01T21:18:10.685Z,22.67
2019-04-01T21:20:39.120Z,22.66
2019-04-01T21:23:07.692Z,22.65
2019-04-01T21:25:36.163Z,22.65
2019-04-01T21:28:04.840Z,22.64
2019-04-01T21:30:33.253Z,22.63
2019-04-01T21:33:01.687Z,22.62
2019-04-01T21:35:30.128Z,22.62
2019-04-01T21:37:58.525Z,22.62
2019-04-01T21:40:27.982Z,22.62
2019-04-01T21:42:56.766Z,22.62
2019-04-01T21:45:25.217Z,22.60
2019-04-01T21:47:53.626Z,22.59
2019-04-01T21:50:22.074Z,22.59
2019-04-01T21:52:50.498Z,22.58
2019-04-01T21:55:19.187Z,22.58
2019-04-01T21:57:47.635Z,22.57
2019-04-01T22:00:20.892Z,22.57
2019-04-01T22:02:49.305Z,22.55
2019-04-01T22:05:17.715Z,22.56
2019-04-01T22:07:46.153Z,22.54
2019-04-01T22:10:14.757Z,22.53
2019-04-01T22:12:43.184Z,22.53
2019-04-01T22:15:11.622Z,22.51
2019-04-01T22:17:40.050Z,22.51
2019-04-01T22:20:10.219Z,22.51
2019-04-01T22:22:38.829Z,22.49
2019-04-01T22:25:07.588Z,22.49
2019-04-01T22:27:36.049Z,22.51
2019-04-01T22:35:00.647Z,22.47
2019-04-01T22:37:29.059Z,22.46
2019-04-01T22:39:57.498Z,22.46
2019-04-01T22:42:27.047Z,22.45
2019-04-01T22:44:55.752Z,22.46
2019-04-01T22:47:24.576Z,22.45
2019-04-01T22:49:53.081Z,22.43
2019-04-01T22:52:21.485Z,22.42
2019-04-01T22:54:49.913Z,22.42
2019-04-01T22:57:18.349Z,22.42
2019-04-01T22:59:46.777Z,22.42
2019-04-01T23:02:15.223Z,22.41
2019-04-01T23:04:43.646Z,22.41
2019-04-01T23:07:12.096Z,22.41
2019-04-01T23:09:40.502Z,22.39
2019-04-01T23:12:08.948Z,22.40
2019-04-01T23:14:37.379Z,22.39
2019-04-01T23:17:05.786Z,22.38
2019-04-01T23:19:34.493Z,22.39
2019-04-01T23:22:04.273Z,22.37
2019-04-01T23:24:32.733Z,22.36
2019-04-01T23:27:01.143Z,22.36
2019-04-01T23:29:29.844Z,22.35
2019-04-01T23:31:58.250Z,22.34
2019-04-01T23:34:26.737Z,22.34
2019-04-01T23:36:55.151Z,22.33
2019-04-01T23:39:23.651Z,22.32
2019-04-01T23:41:52.089Z,22.32
2019-04-01T23:44:20.501Z,22.32
2019-04-01T23:46:48.955Z,22.31
2019-04-01T23:49:17.439Z,22.30
2019-04-01T23:51:45.870Z,22.30
2019-04-01T23:54:14.275Z,22.30
2019-04-01T23:56:42.711Z,22.29
2019-04-01T23:59:11.149Z,22.28
